sensor_id;sensor_type;location;lat;lon;timestamp;P1;durP1;ratioP1;P2;durP2;ratioP2
32535;SDS011;18974;50.838;4.636;2022-11-20T00:01:26;40.75;;;21.05;;
32535;SDS011;18974;50.838;4.636;2022-11-20T00:03:53;33.60;;;18.23;;
32535;SDS011;18974;50.838;4.636;2022-11-20T00:06:20;36.60;;;19.65;;
32535;SDS011;18974;50.838;4.636;2022-11-20T00:08:47;38.15;;;19.42;;
32535;SDS011;18974;50.838;4.636;2022-11-20T00:11:15;36.80;;;19.67;;
32535;SDS011;18974;50.838;4.636;2022-11-20T00:13:45;36.50;;;19.20;;
32535;SDS011;18974;50.838;4.636;2022-11-20T00:16:12;41.40;;;21.27;;
32535;SDS011;18974;50.838;4.636;2022-11-20T00:18:39;40.63;;;21.05;;
32535;SDS011;18974;50.838;4.636;2022-11-20T00:21:09;46.92;;;20.95;;
32535;SDS011;18974;50.838;4.636;2022-11-20T00:23:37;42.70;;;20.85;;
32535;SDS011;18974;50.838;4.636;2022-11-20T00:26:03;44.08;;;20.75;;
32535;SDS011;18974;50.838;4.636;2022-11-20T00:28:34;42.30;;;21.42;;
32535;SDS011;18974;50.838;4.636;2022-11-20T00:31:03;41.97;;;20.80;;
32535;SDS011;18974;50.838;4.636;2022-11-20T00:33:36;45.83;;;22.25;;
32535;SDS011;18974;50.838;4.636;2022-11-20T00:36:03;37.45;;;19.95;;
32535;SDS011;18974;50.838;4.636;2022-11-20T00:38:33;39.03;;;20.20;;
32535;SDS011;18974;50.838;4.636;2022-11-20T00:41:00;47.83;;;20.63;;
32535;SDS011;18974;50.838;4.636;2022-11-20T00:43:27;40.28;;;21.02;;
32535;SDS011;18974;50.838;4.636;2022-11-20T00:45:59;37.58;;;20.65;;
32535;SDS011;18974;50.838;4.636;2022-11-20T00:48:26;40.78;;;20.80;;
32535;SDS011;18974;50.838;4.636;2022-11-20T00:50:52;44.72;;;20.85;;
32535;SDS011;18974;50.838;4.636;2022-11-20T00:53:19;39.38;;;21.05;;
32535;SDS011;18974;50.838;4.636;2022-11-20T00:55:58;40.78;;;20.88;;
32535;SDS011;18974;50.838;4.636;2022-11-20T00:58:28;41.80;;;20.13;;
32535;SDS011;18974;50.838;4.636;2022-11-20T01:01:02;44.63;;;21.08;;
32535;SDS011;18974;50.838;4.636;2022-11-20T01:03:33;45.17;;;21.65;;
32535;SDS011;18974;50.838;4.636;2022-11-20T01:06:00;41.13;;;21.98;;
32535;SDS011;18974;50.838;4.636;2022-11-20T01:08:31;45.25;;;20.08;;
32535;SDS011;18974;50.838;4.636;2022-11-20T01:10:58;45.90;;;21.98;;
32535;SDS011;18974;50.838;4.636;2022-11-20T01:13:27;43.25;;;22.58;;
32535;SDS011;18974;50.838;4.636;2022-11-20T01:16:08;44.75;;;22.63;;
32535;SDS011;18974;50.838;4.636;2022-11-20T01:18:34;52.38;;;23.92;;
32535;SDS011;18974;50.838;4.636;2022-11-20T01:21:05;52.75;;;24.60;;
32535;SDS011;18974;50.838;4.636;2022-11-20T01:23:35;48.72;;;22.42;;
32535;SDS011;18974;50.838;4.636;2022-11-20T01:26:03;46.22;;;22.92;;
32535;SDS011;18974;50.838;4.636;2022-11-20T01:28:30;49.63;;;24.33;;
32535;SDS011;18974;50.838;4.636;2022-11-20T01:30:56;49.55;;;22.38;;
32535;SDS011;18974;50.838;4.636;2022-11-20T01:33:22;50.63;;;24.23;;
32535;SDS011;18974;50.838;4.636;2022-11-20T01:35:48;54.15;;;23.95;;
32535;SDS011;18974;50.838;4.636;2022-11-20T01:38:15;51.38;;;24.55;;
32535;SDS011;18974;50.838;4.636;2022-11-20T01:40:41;48.60;;;24.00;;
32535;SDS011;18974;50.838;4.636;2022-11-20T01:43:14;51.75;;;24.45;;
32535;SDS011;18974;50.838;4.636;2022-11-20T01:45:59;58.15;;;25.98;;
32535;SDS011;18974;50.838;4.636;2022-11-20T01:49:11;54.70;;;26.25;;
32535;SDS011;18974;50.838;4.636;2022-11-20T01:53:55;50.60;;;24.45;;
32535;SDS011;18974;50.838;4.636;2022-11-20T01:56:24;57.05;;;25.48;;
32535;SDS011;18974;50.838;4.636;2022-11-20T01:58:53;56.72;;;24.65;;
32535;SDS011;18974;50.838;4.636;2022-11-20T02:01:21;57.88;;;25.50;;
32535;SDS011;18974;50.838;4.636;2022-11-20T02:03:48;52.40;;;24.13;;
32535;SDS011;18974;50.838;4.636;2022-11-20T02:09:00;54.55;;;25.67;;
32535;SDS011;18974;50.838;4.636;2022-11-20T02:11:25;61.20;;;27.15;;
32535;SDS011;18974;50.838;4.636;2022-11-20T02:13:51;54.88;;;26.70;;
32535;SDS011;18974;50.838;4.636;2022-11-20T02:16:28;57.38;;;25.88;;
32535;SDS011;18974;50.838;4.636;2022-11-20T02:18:59;53.47;;;25.30;;
32535;SDS011;18974;50.838;4.636;2022-11-20T02:26:28;57.10;;;24.90;;
32535;SDS011;18974;50.838;4.636;2022-11-20T02:28:58;62.63;;;26.02;;
32535;SDS011;18974;50.838;4.636;2022-11-20T02:31:25;52.58;;;24.80;;
32535;SDS011;18974;50.838;4.636;2022-11-20T02:33:57;52.60;;;24.17;;
32535;SDS011;18974;50.838;4.636;2022-11-20T02:36:23;58.92;;;26.15;;
32535;SDS011;18974;50.838;4.636;2022-11-20T02:38:52;54.67;;;25.13;;
32535;SDS011;18974;50.838;4.636;2022-11-20T02:41:18;54.53;;;25.27;;
32535;SDS011;18974;50.838;4.636;2022-11-20T02:43:44;58.08;;;25.85;;
32535;SDS011;18974;50.838;4.636;2022-11-20T02:46:10;59.17;;;26.58;;
32535;SDS011;18974;50.838;4.636;2022-11-20T02:48:36;60.75;;;26.70;;
32535;SDS011;18974;50.838;4.636;2022-11-20T02:51:01;54.58;;;25.13;;
32535;SDS011;18974;50.838;4.636;2022-11-20T02:53:27;61.40;;;25.95;;
32535;SDS011;18974;50.838;4.636;2022-11-20T02:55:53;58.17;;;24.90;;
32535;SDS011;18974;50.838;4.636;2022-11-20T02:58:19;59.85;;;24.92;;
32535;SDS011;18974;50.838;4.636;2022-11-20T03:00:44;58.42;;;25.60;;
32535;SDS011;18974;50.838;4.636;2022-11-20T03:03:10;55.83;;;26.42;;
32535;SDS011;18974;50.838;4.636;2022-11-20T03:05:36;65.07;;;26.25;;
32535;SDS011;18974;50.838;4.636;2022-11-20T03:08:01;65.35;;;26.65;;
32535;SDS011;18974;50.838;4.636;2022-11-20T03:10:27;69.25;;;28.70;;
32535;SDS011;18974;50.838;4.636;2022-11-20T03:12:56;66.82;;;28.63;;
32535;SDS011;18974;50.838;4.636;2022-11-20T03:15:22;71.57;;;28.73;;
32535;SDS011;18974;50.838;4.636;2022-11-20T03:17:48;71.90;;;26.58;;
32535;SDS011;18974;50.838;4.636;2022-11-20T03:20:17;73.45;;;28.98;;
32535;SDS011;18974;50.838;4.636;2022-11-20T03:22:43;68.68;;;26.70;;
32535;SDS011;18974;50.838;4.636;2022-11-20T03:25:09;71.40;;;27.30;;
32535;SDS011;18974;50.838;4.636;2022-11-20T03:27:34;63.33;;;26.98;;
32535;SDS011;18974;50.838;4.636;2022-11-20T03:30:00;72.03;;;28.73;;
32535;SDS011;18974;50.838;4.636;2022-11-20T03:32:26;63.90;;;25.63;;
32535;SDS011;18974;50.838;4.636;2022-11-20T03:34:52;67.85;;;25.92;;
32535;SDS011;18974;50.838;4.636;2022-11-20T03:37:17;69.00;;;25.50;;
32535;SDS011;18974;50.838;4.636;2022-11-20T03:39:43;63.03;;;25.40;;
32535;SDS011;18974;50.838;4.636;2022-11-20T03:42:09;67.10;;;25.80;;
32535;SDS011;18974;50.838;4.636;2022-11-20T03:44:54;66.53;;;26.70;;
32535;SDS011;18974;50.838;4.636;2022-11-20T03:47:20;59.20;;;24.23;;
32535;SDS011;18974;50.838;4.636;2022-11-20T03:49:46;57.22;;;25.70;;
32535;SDS011;18974;50.838;4.636;2022-11-20T03:52:12;66.15;;;24.65;;
32535;SDS011;18974;50.838;4.636;2022-11-20T03:54:37;64.65;;;25.15;;
32535;SDS011;18974;50.838;4.636;2022-11-20T03:57:03;57.78;;;23.90;;
32535;SDS011;18974;50.838;4.636;2022-11-20T03:59:29;59.22;;;24.23;;
32535;SDS011;18974;50.838;4.636;2022-11-20T04:01:54;51.85;;;22.00;;
32535;SDS011;18974;50.838;4.636;2022-11-20T04:04:21;53.45;;;22.17;;
32535;SDS011;18974;50.838;4.636;2022-11-20T04:06:47;62.22;;;23.27;;
32535;SDS011;18974;50.838;4.636;2022-11-20T04:09:13;53.97;;;23.35;;
32535;SDS011;18974;50.838;4.636;2022-11-20T04:11:39;53.38;;;21.60;;
32535;SDS011;18974;50.838;4.636;2022-11-20T04:14:06;54.58;;;23.10;;
32535;SDS011;18974;50.838;4.636;2022-11-20T04:16:37;51.00;;;21.42;;
32535;SDS011;18974;50.838;4.636;2022-11-20T04:19:04;48.42;;;20.33;;
32535;SDS011;18974;50.838;4.636;2022-11-20T04:21:34;51.15;;;21.13;;
32535;SDS011;18974;50.838;4.636;2022-11-20T04:24:01;50.17;;;20.05;;
32535;SDS011;18974;50.838;4.636;2022-11-20T04:26:28;50.42;;;20.55;;
32535;SDS011;18974;50.838;4.636;2022-11-20T04:28:54;42.75;;;18.73;;
32535;SDS011;18974;50.838;4.636;2022-11-20T04:31:21;46.88;;;20.42;;
32535;SDS011;18974;50.838;4.636;2022-11-20T04:33:49;46.33;;;19.98;;
32535;SDS011;18974;50.838;4.636;2022-11-20T04:36:16;48.30;;;20.77;;
32535;SDS011;18974;50.838;4.636;2022-11-20T04:38:43;46.45;;;18.92;;
32535;SDS011;18974;50.838;4.636;2022-11-20T04:41:17;43.03;;;18.27;;
32535;SDS011;18974;50.838;4.636;2022-11-20T04:43:47;50.45;;;20.15;;
32535;SDS011;18974;50.838;4.636;2022-11-20T04:46:15;41.88;;;18.83;;
32535;SDS011;18974;50.838;4.636;2022-11-20T04:48:41;46.38;;;18.42;;
32535;SDS011;18974;50.838;4.636;2022-11-20T04:51:07;50.00;;;21.20;;
32535;SDS011;18974;50.838;4.636;2022-11-20T04:53:33;41.97;;;18.45;;
32535;SDS011;18974;50.838;4.636;2022-11-20T04:56:02;43.30;;;18.40;;
32535;SDS011;18974;50.838;4.636;2022-11-20T04:58:29;40.25;;;17.55;;
32535;SDS011;18974;50.838;4.636;2022-11-20T05:01:02;43.22;;;17.15;;
32535;SDS011;18974;50.838;4.636;2022-11-20T05:03:29;44.22;;;19.90;;
32535;SDS011;18974;50.838;4.636;2022-11-20T05:05:55;43.42;;;19.00;;
32535;SDS011;18974;50.838;4.636;2022-11-20T05:08:20;44.88;;;18.35;;
32535;SDS011;18974;50.838;4.636;2022-11-20T05:10:46;45.90;;;18.30;;
32535;SDS011;18974;50.838;4.636;2022-11-20T05:13:12;53.22;;;19.77;;
32535;SDS011;18974;50.838;4.636;2022-11-20T05:15:38;43.67;;;18.27;;
32535;SDS011;18974;50.838;4.636;2022-11-20T05:18:03;48.33;;;19.27;;
32535;SDS011;18974;50.838;4.636;2022-11-20T05:20:29;54.08;;;19.45;;
32535;SDS011;18974;50.838;4.636;2022-11-20T05:22:58;46.22;;;18.65;;
32535;SDS011;18974;50.838;4.636;2022-11-20T05:25:24;40.70;;;17.70;;
32535;SDS011;18974;50.838;4.636;2022-11-20T05:27:50;43.88;;;19.05;;
32535;SDS011;18974;50.838;4.636;2022-11-20T05:30:16;46.85;;;19.70;;
32535;SDS011;18974;50.838;4.636;2022-11-20T05:32:42;47.65;;;19.58;;
32535;SDS011;18974;50.838;4.636;2022-11-20T05:35:07;45.22;;;18.85;;
32535;SDS011;18974;50.838;4.636;2022-11-20T05:37:33;50.08;;;19.63;;
32535;SDS011;18974;50.838;4.636;2022-11-20T05:39:59;56.53;;;21.25;;
32535;SDS011;18974;50.838;4.636;2022-11-20T05:42:25;55.42;;;21.15;;
32535;SDS011;18974;50.838;4.636;2022-11-20T05:44:56;53.97;;;20.98;;
32535;SDS011;18974;50.838;4.636;2022-11-20T05:47:26;51.15;;;21.50;;
32535;SDS011;18974;50.838;4.636;2022-11-20T05:49:53;48.85;;;19.23;;
32535;SDS011;18974;50.838;4.636;2022-11-20T05:52:19;49.67;;;20.20;;
32535;SDS011;18974;50.838;4.636;2022-11-20T05:54:45;53.13;;;20.48;;
32535;SDS011;18974;50.838;4.636;2022-11-20T05:57:10;52.03;;;20.23;;
32535;SDS011;18974;50.838;4.636;2022-11-20T05:59:36;43.97;;;19.02;;
32535;SDS011;18974;50.838;4.636;2022-11-20T06:02:02;53.63;;;20.23;;
32535;SDS011;18974;50.838;4.636;2022-11-20T06:04:28;49.00;;;19.17;;
32535;SDS011;18974;50.838;4.636;2022-11-20T06:06:53;49.05;;;19.13;;
32535;SDS011;18974;50.838;4.636;2022-11-20T06:09:19;50.72;;;20.35;;
32535;SDS011;18974;50.838;4.636;2022-11-20T06:11:45;60.00;;;22.30;;
32535;SDS011;18974;50.838;4.636;2022-11-20T06:14:10;62.28;;;22.00;;
32535;SDS011;18974;50.838;4.636;2022-11-20T06:16:36;58.05;;;20.95;;
32535;SDS011;18974;50.838;4.636;2022-11-20T06:19:02;68.13;;;23.23;;
32535;SDS011;18974;50.838;4.636;2022-11-20T06:21:27;72.50;;;23.00;;
32535;SDS011;18974;50.838;4.636;2022-11-20T06:23:53;63.83;;;22.02;;
32535;SDS011;18974;50.838;4.636;2022-11-20T06:26:20;62.58;;;22.42;;
32535;SDS011;18974;50.838;4.636;2022-11-20T06:28:47;67.82;;;22.13;;
32535;SDS011;18974;50.838;4.636;2022-11-20T06:31:14;72.30;;;23.58;;
32535;SDS011;18974;50.838;4.636;2022-11-20T06:33:42;72.28;;;25.15;;
32535;SDS011;18974;50.838;4.636;2022-11-20T06:36:09;65.63;;;22.58;;
32535;SDS011;18974;50.838;4.636;2022-11-20T06:38:36;62.53;;;22.13;;
32535;SDS011;18974;50.838;4.636;2022-11-20T06:41:03;80.57;;;24.73;;
32535;SDS011;18974;50.838;4.636;2022-11-20T06:43:30;68.63;;;23.98;;
32535;SDS011;18974;50.838;4.636;2022-11-20T06:45:56;73.32;;;24.10;;
32535;SDS011;18974;50.838;4.636;2022-11-20T06:48:23;78.25;;;24.92;;
32535;SDS011;18974;50.838;4.636;2022-11-20T06:50:50;93.93;;;27.77;;
32535;SDS011;18974;50.838;4.636;2022-11-20T06:53:16;89.38;;;27.45;;
32535;SDS011;18974;50.838;4.636;2022-11-20T06:55:45;87.03;;;26.20;;
32535;SDS011;18974;50.838;4.636;2022-11-20T06:58:12;88.95;;;25.77;;
32535;SDS011;18974;50.838;4.636;2022-11-20T07:00:39;89.75;;;24.77;;
32535;SDS011;18974;50.838;4.636;2022-11-20T07:03:06;95.70;;;27.02;;
32535;SDS011;18974;50.838;4.636;2022-11-20T07:05:33;87.13;;;25.30;;
32535;SDS011;18974;50.838;4.636;2022-11-20T07:08:00;87.07;;;26.88;;
32535;SDS011;18974;50.838;4.636;2022-11-20T07:10:25;85.00;;;26.85;;
32535;SDS011;18974;50.838;4.636;2022-11-20T07:12:52;97.18;;;26.90;;
32535;SDS011;18974;50.838;4.636;2022-11-20T07:15:19;97.63;;;28.15;;
32535;SDS011;18974;50.838;4.636;2022-11-20T07:17:46;84.68;;;26.13;;
32535;SDS011;18974;50.838;4.636;2022-11-20T07:20:12;94.70;;;27.08;;
32535;SDS011;18974;50.838;4.636;2022-11-20T07:22:38;105.32;;;27.08;;
32535;SDS011;18974;50.838;4.636;2022-11-20T07:25:04;85.63;;;27.23;;
32535;SDS011;18974;50.838;4.636;2022-11-20T07:27:30;91.97;;;27.38;;
32535;SDS011;18974;50.838;4.636;2022-11-20T07:29:57;94.10;;;27.30;;
32535;SDS011;18974;50.838;4.636;2022-11-20T07:32:23;95.57;;;27.33;;
32535;SDS011;18974;50.838;4.636;2022-11-20T07:34:49;97.63;;;26.95;;
32535;SDS011;18974;50.838;4.636;2022-11-20T07:37:15;102.97;;;30.10;;
32535;SDS011;18974;50.838;4.636;2022-11-20T07:39:41;98.45;;;28.75;;
32535;SDS011;18974;50.838;4.636;2022-11-20T07:42:07;101.68;;;28.15;;
32535;SDS011;18974;50.838;4.636;2022-11-20T07:44:33;95.50;;;26.73;;
32535;SDS011;18974;50.838;4.636;2022-11-20T07:46:59;105.47;;;27.88;;
32535;SDS011;18974;50.838;4.636;2022-11-20T07:49:25;86.53;;;29.13;;
32535;SDS011;18974;50.838;4.636;2022-11-20T07:51:51;93.18;;;26.23;;
32535;SDS011;18974;50.838;4.636;2022-11-20T07:54:19;85.72;;;25.63;;
32535;SDS011;18974;50.838;4.636;2022-11-20T07:56:45;88.72;;;27.33;;
32535;SDS011;18974;50.838;4.636;2022-11-20T07:59:11;85.90;;;25.48;;
32535;SDS011;18974;50.838;4.636;2022-11-20T08:01:40;86.05;;;26.40;;
32535;SDS011;18974;50.838;4.636;2022-11-20T08:04:07;82.60;;;24.70;;
32535;SDS011;18974;50.838;4.636;2022-11-20T08:06:33;94.55;;;28.77;;
32535;SDS011;18974;50.838;4.636;2022-11-20T08:08:58;85.78;;;25.40;;
32535;SDS011;18974;50.838;4.636;2022-11-20T08:11:24;88.22;;;26.98;;
32535;SDS011;18974;50.838;4.636;2022-11-20T08:14:08;91.15;;;25.63;;
32535;SDS011;18974;50.838;4.636;2022-11-20T08:16:37;92.90;;;25.88;;
32535;SDS011;18974;50.838;4.636;2022-11-20T08:19:05;81.43;;;26.80;;
32535;SDS011;18974;50.838;4.636;2022-11-20T08:21:32;87.57;;;27.20;;
32535;SDS011;18974;50.838;4.636;2022-11-20T08:23:58;88.55;;;27.75;;
32535;SDS011;18974;50.838;4.636;2022-11-20T08:26:24;85.47;;;25.88;;
32535;SDS011;18974;50.838;4.636;2022-11-20T08:28:57;89.25;;;27.27;;
32535;SDS011;18974;50.838;4.636;2022-11-20T08:31:23;96.05;;;27.05;;
32535;SDS011;18974;50.838;4.636;2022-11-20T08:33:50;89.82;;;28.55;;
32535;SDS011;18974;50.838;4.636;2022-11-20T08:36:17;88.93;;;26.80;;
32535;SDS011;18974;50.838;4.636;2022-11-20T08:38:46;90.65;;;26.67;;
32535;SDS011;18974;50.838;4.636;2022-11-20T08:41:13;84.80;;;26.98;;
32535;SDS011;18974;50.838;4.636;2022-11-20T08:44:01;91.47;;;26.23;;
32535;SDS011;18974;50.838;4.636;2022-11-20T08:46:32;87.32;;;26.75;;
32535;SDS011;18974;50.838;4.636;2022-11-20T08:49:01;87.00;;;25.23;;
32535;SDS011;18974;50.838;4.636;2022-11-20T08:51:27;72.82;;;25.27;;
32535;SDS011;18974;50.838;4.636;2022-11-20T08:53:53;93.50;;;26.02;;
32535;SDS011;18974;50.838;4.636;2022-11-20T08:56:18;84.22;;;27.08;;
32535;SDS011;18974;50.838;4.636;2022-11-20T08:58:44;91.43;;;27.25;;
32535;SDS011;18974;50.838;4.636;2022-11-20T09:01:10;94.18;;;27.40;;
32535;SDS011;18974;50.838;4.636;2022-11-20T09:03:39;92.78;;;28.35;;
32535;SDS011;18974;50.838;4.636;2022-11-20T09:06:05;79.75;;;27.27;;
32535;SDS011;18974;50.838;4.636;2022-11-20T09:08:32;80.47;;;25.92;;
32535;SDS011;18974;50.838;4.636;2022-11-20T09:10:58;97.20;;;28.80;;
32535;SDS011;18974;50.838;4.636;2022-11-20T09:13:25;74.38;;;24.10;;
32535;SDS011;18974;50.838;4.636;2022-11-20T09:15:55;81.63;;;26.08;;
32535;SDS011;18974;50.838;4.636;2022-11-20T09:18:23;78.30;;;25.17;;
32535;SDS011;18974;50.838;4.636;2022-11-20T09:20:49;80.45;;;24.75;;
32535;SDS011;18974;50.838;4.636;2022-11-20T09:23:15;89.22;;;28.33;;
32535;SDS011;18974;50.838;4.636;2022-11-20T09:25:42;84.68;;;27.48;;
32535;SDS011;18974;50.838;4.636;2022-11-20T09:28:08;75.00;;;26.23;;
32535;SDS011;18974;50.838;4.636;2022-11-20T09:30:34;76.85;;;24.33;;
32535;SDS011;18974;50.838;4.636;2022-11-20T09:33:00;74.43;;;24.08;;
32535;SDS011;18974;50.838;4.636;2022-11-20T09:35:25;80.28;;;25.63;;
32535;SDS011;18974;50.838;4.636;2022-11-20T09:37:51;90.15;;;27.50;;
32535;SDS011;18974;50.838;4.636;2022-11-20T09:42:50;68.70;;;23.52;;
32535;SDS011;18974;50.838;4.636;2022-11-20T09:56:30;73.53;;;24.05;;
32535;SDS011;18974;50.838;4.636;2022-11-20T09:59:02;63.50;;;23.80;;
32535;SDS011;18974;50.838;4.636;2022-11-20T10:01:31;65.10;;;21.90;;
32535;SDS011;18974;50.838;4.636;2022-11-20T10:04:02;69.38;;;23.20;;
32535;SDS011;18974;50.838;4.636;2022-11-20T10:09:34;64.32;;;22.38;;
32535;SDS011;18974;50.838;4.636;2022-11-20T10:12:05;73.40;;;22.77;;
32535;SDS011;18974;50.838;4.636;2022-11-20T10:20:24;55.70;;;20.05;;
32535;SDS011;18974;50.838;4.636;2022-11-20T10:31:21;56.13;;;20.10;;
32535;SDS011;18974;50.838;4.636;2022-11-20T10:33:59;60.92;;;20.08;;
32535;SDS011;18974;50.838;4.636;2022-11-20T10:36:30;48.20;;;19.38;;
32535;SDS011;18974;50.838;4.636;2022-11-20T10:39:03;50.30;;;18.20;;
32535;SDS011;18974;50.838;4.636;2022-11-20T10:41:40;45.03;;;18.08;;
32535;SDS011;18974;50.838;4.636;2022-11-20T10:44:12;55.53;;;18.08;;
32535;SDS011;18974;50.838;4.636;2022-11-20T10:47:00;43.03;;;15.10;;
32535;SDS011;18974;50.838;4.636;2022-11-20T10:49:26;34.47;;;15.02;;
32535;SDS011;18974;50.838;4.636;2022-11-20T10:54:47;36.13;;;14.02;;
32535;SDS011;18974;50.838;4.636;2022-11-20T11:02:33;25.38;;;12.43;;
32535;SDS011;18974;50.838;4.636;2022-11-20T11:05:09;23.40;;;10.90;;
32535;SDS011;18974;50.838;4.636;2022-11-20T11:07:45;21.73;;;9.35;;
32535;SDS011;18974;50.838;4.636;2022-11-20T11:10:17;13.88;;;6.93;;
32535;SDS011;18974;50.838;4.636;2022-11-20T11:12:47;15.10;;;6.18;;
32535;SDS011;18974;50.838;4.636;2022-11-20T11:15:14;13.27;;;6.22;;
32535;SDS011;18974;50.838;4.636;2022-11-20T11:17:52;14.20;;;5.95;;
32535;SDS011;18974;50.838;4.636;2022-11-20T11:20:20;14.15;;;5.60;;
32535;SDS011;18974;50.838;4.636;2022-11-20T11:22:48;17.98;;;5.35;;
32535;SDS011;18974;50.838;4.636;2022-11-20T11:27:57;10.00;;;4.47;;
32535;SDS011;18974;50.838;4.636;2022-11-20T11:30:25;6.43;;;3.95;;
32535;SDS011;18974;50.838;4.636;2022-11-20T11:33:02;7.88;;;3.45;;
32535;SDS011;18974;50.838;4.636;2022-11-20T11:35:29;6.95;;;3.53;;
32535;SDS011;18974;50.838;4.636;2022-11-20T11:38:02;8.65;;;3.53;;
32535;SDS011;18974;50.838;4.636;2022-11-20T11:40:31;7.55;;;3.20;;
32535;SDS011;18974;50.838;4.636;2022-11-20T11:43:04;8.77;;;3.22;;
32535;SDS011;18974;50.838;4.636;2022-11-20T11:45:54;4.97;;;2.65;;
32535;SDS011;18974;50.838;4.636;2022-11-20T11:48:20;12.98;;;3.03;;
32535;SDS011;18974;50.838;4.636;2022-11-20T11:50:50;4.20;;;2.65;;
32535;SDS011;18974;50.838;4.636;2022-11-20T11:53:17;7.45;;;2.50;;
32535;SDS011;18974;50.838;4.636;2022-11-20T11:55:56;10.02;;;2.17;;
32535;SDS011;18974;50.838;4.636;2022-11-20T11:58:40;11.48;;;2.83;;
32535;SDS011;18974;50.838;4.636;2022-11-20T12:01:20;6.55;;;2.00;;
32535;SDS011;18974;50.838;4.636;2022-11-20T12:03:59;5.10;;;1.80;;
32535;SDS011;18974;50.838;4.636;2022-11-20T12:06:35;9.35;;;2.13;;
32535;SDS011;18974;50.838;4.636;2022-11-20T12:09:09;5.55;;;2.30;;
32535;SDS011;18974;50.838;4.636;2022-11-20T12:11:43;9.60;;;2.70;;
32535;SDS011;18974;50.838;4.636;2022-11-20T12:14:40;13.52;;;2.00;;
32535;SDS011;18974;50.838;4.636;2022-11-20T12:17:13;6.22;;;1.77;;
32535;SDS011;18974;50.838;4.636;2022-11-20T12:19:39;15.38;;;4.30;;
32535;SDS011;18974;50.838;4.636;2022-11-20T12:22:27;9.48;;;2.15;;
32535;SDS011;18974;50.838;4.636;2022-11-20T12:25:29;21.65;;;6.63;;
32535;SDS011;18974;50.838;4.636;2022-11-20T12:31:14;8.38;;;2.38;;
32535;SDS011;18974;50.838;4.636;2022-11-20T12:36:19;6.95;;;1.77;;
32535;SDS011;18974;50.838;4.636;2022-11-20T12:53:38;12.25;;;4.70;;
32535;SDS011;18974;50.838;4.636;2022-11-20T13:07:45;7.43;;;3.05;;
32535;SDS011;18974;50.838;4.636;2022-11-20T13:10:24;6.82;;;2.80;;
32535;SDS011;18974;50.838;4.636;2022-11-20T13:13:00;8.48;;;2.83;;
32535;SDS011;18974;50.838;4.636;2022-11-20T13:15:50;7.00;;;2.75;;
32535;SDS011;18974;50.838;4.636;2022-11-20T13:18:26;9.37;;;2.90;;
32535;SDS011;18974;50.838;4.636;2022-11-20T13:21:13;15.65;;;4.47;;
32535;SDS011;18974;50.838;4.636;2022-11-20T13:23:48;9.98;;;3.17;;
32535;SDS011;18974;50.838;4.636;2022-11-20T13:26:17;9.70;;;2.83;;
32535;SDS011;18974;50.838;4.636;2022-11-20T13:28:47;7.10;;;2.67;;
32535;SDS011;18974;50.838;4.636;2022-11-20T13:31:28;8.63;;;2.90;;
32535;SDS011;18974;50.838;4.636;2022-11-20T13:33:56;10.80;;;2.70;;
32535;SDS011;18974;50.838;4.636;2022-11-20T13:36:24;6.43;;;2.97;;
32535;SDS011;18974;50.838;4.636;2022-11-20T13:38:53;10.73;;;3.20;;
32535;SDS011;18974;50.838;4.636;2022-11-20T13:46:39;12.30;;;3.17;;
32535;SDS011;18974;50.838;4.636;2022-11-20T13:49:09;5.60;;;2.95;;
32535;SDS011;18974;50.838;4.636;2022-11-20T13:51:43;6.70;;;3.13;;
32535;SDS011;18974;50.838;4.636;2022-11-20T14:02:23;14.95;;;3.00;;
32535;SDS011;18974;50.838;4.636;2022-11-20T14:04:53;10.30;;;2.70;;
32535;SDS011;18974;50.838;4.636;2022-11-20T14:07:22;8.52;;;2.90;;
32535;SDS011;18974;50.838;4.636;2022-11-20T14:09:55;11.02;;;3.55;;
32535;SDS011;18974;50.838;4.636;2022-11-20T14:12:23;6.28;;;3.90;;
32535;SDS011;18974;50.838;4.636;2022-11-20T14:14:53;7.70;;;3.80;;
32535;SDS011;18974;50.838;4.636;2022-11-20T14:17:21;7.25;;;3.25;;
32535;SDS011;18974;50.838;4.636;2022-11-20T14:19:50;6.28;;;3.15;;
32535;SDS011;18974;50.838;4.636;2022-11-20T14:25:03;7.88;;;2.67;;
32535;SDS011;18974;50.838;4.636;2022-11-20T14:27:32;11.88;;;3.03;;
32535;SDS011;18974;50.838;4.636;2022-11-20T14:30:00;5.85;;;3.03;;
32535;SDS011;18974;50.838;4.636;2022-11-20T14:32:28;3.45;;;1.90;;
32535;SDS011;18974;50.838;4.636;2022-11-20T14:34:55;7.40;;;2.15;;
32535;SDS011;18974;50.838;4.636;2022-11-20T14:37:28;2.83;;;1.92;;
32535;SDS011;18974;50.838;4.636;2022-11-20T14:39:58;5.07;;;2.00;;
32535;SDS011;18974;50.838;4.636;2022-11-20T14:42:25;5.65;;;2.55;;
32535;SDS011;18974;50.838;4.636;2022-11-20T14:44:55;6.28;;;1.92;;
32535;SDS011;18974;50.838;4.636;2022-11-20T14:47:24;4.97;;;1.95;;
32535;SDS011;18974;50.838;4.636;2022-11-20T14:49:52;4.30;;;1.70;;
32535;SDS011;18974;50.838;4.636;2022-11-20T14:52:23;7.95;;;1.73;;
32535;SDS011;18974;50.838;4.636;2022-11-20T14:54:54;5.60;;;1.70;;
32535;SDS011;18974;50.838;4.636;2022-11-20T14:57:29;2.00;;;1.33;;
32535;SDS011;18974;50.838;4.636;2022-11-20T15:00:07;1.53;;;1.20;;
32535;SDS011;18974;50.838;4.636;2022-11-20T15:02:44;2.72;;;1.38;;
32535;SDS011;18974;50.838;4.636;2022-11-20T15:05:10;2.28;;;1.50;;
32535;SDS011;18974;50.838;4.636;2022-11-20T15:07:38;2.25;;;1.48;;
32535;SDS011;18974;50.838;4.636;2022-11-20T15:10:11;2.95;;;1.50;;
32535;SDS011;18974;50.838;4.636;2022-11-20T15:12:51;2.20;;;1.48;;
32535;SDS011;18974;50.838;4.636;2022-11-20T15:15:21;4.05;;;1.63;;
32535;SDS011;18974;50.838;4.636;2022-11-20T15:17:52;6.75;;;1.80;;
32535;SDS011;18974;50.838;4.636;2022-11-20T15:20:18;4.97;;;1.58;;
32535;SDS011;18974;50.838;4.636;2022-11-20T15:22:44;5.40;;;2.00;;
32535;SDS011;18974;50.838;4.636;2022-11-20T15:25:16;6.13;;;2.25;;
32535;SDS011;18974;50.838;4.636;2022-11-20T15:27:43;6.88;;;2.17;;
32535;SDS011;18974;50.838;4.636;2022-11-20T15:30:17;4.35;;;2.17;;
32535;SDS011;18974;50.838;4.636;2022-11-20T15:32:44;8.57;;;2.50;;
32535;SDS011;18974;50.838;4.636;2022-11-20T15:35:12;5.90;;;3.08;;
32535;SDS011;18974;50.838;4.636;2022-11-20T15:37:38;4.05;;;2.60;;
32535;SDS011;18974;50.838;4.636;2022-11-20T15:40:05;4.25;;;2.67;;
32535;SDS011;18974;50.838;4.636;2022-11-20T15:42:32;6.10;;;3.15;;
32535;SDS011;18974;50.838;4.636;2022-11-20T15:44:58;6.65;;;3.22;;
32535;SDS011;18974;50.838;4.636;2022-11-20T15:47:25;7.70;;;3.30;;
32535;SDS011;18974;50.838;4.636;2022-11-20T15:49:55;8.85;;;4.00;;
32535;SDS011;18974;50.838;4.636;2022-11-20T15:52:21;11.38;;;3.55;;
32535;SDS011;18974;50.838;4.636;2022-11-20T15:54:46;11.05;;;3.00;;
32535;SDS011;18974;50.838;4.636;2022-11-20T15:57:12;7.75;;;3.30;;
32535;SDS011;18974;50.838;4.636;2022-11-20T15:59:38;9.93;;;3.00;;
32535;SDS011;18974;50.838;4.636;2022-11-20T16:02:12;14.40;;;3.10;;
32535;SDS011;18974;50.838;4.636;2022-11-20T16:04:40;9.02;;;2.75;;
32535;SDS011;18974;50.838;4.636;2022-11-20T16:07:06;7.45;;;3.15;;
32535;SDS011;18974;50.838;4.636;2022-11-20T16:09:31;5.47;;;2.42;;
32535;SDS011;18974;50.838;4.636;2022-11-20T16:11:57;6.70;;;2.85;;
32535;SDS011;18974;50.838;4.636;2022-11-20T16:14:26;10.80;;;3.95;;
32535;SDS011;18974;50.838;4.636;2022-11-20T16:17:11;16.17;;;3.50;;
32535;SDS011;18974;50.838;4.636;2022-11-20T16:19:37;5.45;;;2.28;;